createdAt,value
2023-01-13T00:06:52.922Z,8.00
2023-01-13T00:10:33.923Z,5.10
2023-01-13T00:14:26.098Z,6.20
2023-01-13T00:17:52.836Z,6.00
2023-01-13T00:21:38.848Z,6.70
2023-01-13T00:25:34.121Z,6.00
2023-01-13T00:29:00.977Z,6.00
2023-01-13T00:32:37.964Z,6.10
2023-01-13T00:36:10.092Z,7.00
2023-01-13T00:39:45.923Z,7.60
2023-01-13T00:43:40.962Z,6.50
2023-01-13T00:47:13.122Z,7.10
2023-01-13T00:50:58.934Z,7.30
2023-01-13T00:54:50.954Z,7.30
2023-01-13T00:58:19.097Z,6.20
2023-01-13T01:01:44.167Z,6.10
2023-01-13T01:08:53.974Z,7.90
2023-01-13T01:15:53.802Z,5.50
2023-01-13T01:19:23.941Z,6.10
2023-01-13T01:22:58.936Z,6.80
2023-01-13T01:27:04.887Z,6.50
2023-01-13T01:30:39.023Z,6.10
2023-01-13T01:34:15.974Z,5.70
2023-01-13T01:37:42.939Z,6.50
2023-01-13T01:41:33.208Z,6.10
2023-01-13T01:45:15.959Z,6.70
2023-01-13T01:48:49.945Z,6.70
2023-01-13T01:52:21.951Z,5.70
2023-01-13T01:55:50.229Z,6.70
2023-01-13T01:59:48.951Z,6.80
2023-01-13T02:03:45.001Z,6.90
2023-01-13T02:07:43.167Z,6.80
2023-01-13T02:11:24.080Z,5.80
2023-01-13T02:14:56.183Z,6.20
2023-01-13T02:18:39.391Z,6.30
2023-01-13T02:22:22.046Z,6.00
2023-01-13T02:25:58.019Z,6.50
2023-01-13T02:29:46.397Z,5.60
2023-01-13T02:33:40.024Z,6.30
2023-01-13T02:37:28.129Z,6.50
2023-01-13T02:40:58.070Z,6.80
2023-01-13T02:44:41.035Z,7.20
2023-01-13T02:48:24.069Z,6.40
2023-01-13T02:52:09.712Z,6.70
2023-01-13T02:55:40.061Z,6.40
2023-01-13T02:59:07.182Z,5.70
2023-01-13T03:02:33.021Z,6.80
2023-01-13T03:06:06.212Z,7.10
2023-01-13T03:09:43.078Z,7.30
2023-01-13T03:13:13.017Z,7.30
2023-01-13T03:17:27.112Z,7.20
2023-01-13T03:24:27.001Z,7.10
2023-01-13T03:27:54.075Z,6.10
2023-01-13T03:31:19.090Z,7.70
2023-01-13T03:34:48.033Z,7.70
2023-01-13T03:38:12.021Z,6.30
2023-01-13T03:41:37.090Z,7.50
2023-01-13T03:45:13.096Z,7.20
2023-01-13T03:48:46.049Z,5.00
2023-01-13T03:52:19.048Z,5.90
2023-01-13T03:56:01.062Z,6.50
2023-01-13T03:59:54.136Z,6.70
2023-01-13T07:28:21.873Z,11.80
2023-01-13T07:32:07.954Z,11.50
2023-01-13T07:35:50.858Z,10.70
2023-01-13T07:43:27.796Z,8.00
2023-01-13T07:47:15.257Z,7.60
2023-01-13T07:54:48.109Z,6.20
2023-01-13T07:58:47.554Z,6.60
2023-01-13T08:02:31.213Z,6.30
2023-01-13T08:06:23.940Z,5.80
2023-01-13T08:10:20.594Z,5.70
2023-01-13T08:16:54.401Z,5.20
2023-01-13T08:27:36.256Z,6.20
2023-01-13T08:31:23.038Z,6.00
2023-01-13T08:35:12.024Z,7.50
2023-01-13T08:39:01.706Z,6.60
2023-01-13T08:42:43.527Z,5.60
2023-01-13T08:50:19.443Z,6.50
2023-01-13T08:54:04.907Z,6.90
2023-01-13T08:57:28.952Z,6.00
2023-01-13T09:01:09.158Z,6.40
2023-01-13T09:04:56.052Z,7.90
2023-01-13T09:08:35.246Z,8.10
2023-01-13T09:12:16.894Z,5.70
2023-01-13T09:15:58.477Z,6.00
2023-01-13T09:19:47.085Z,5.50
2023-01-13T09:23:28.094Z,5.60
2023-01-13T09:27:15.001Z,5.80
2023-01-13T09:38:34.084Z,5.90
2023-01-13T09:42:32.704Z,8.50
2023-01-13T09:46:38.717Z,5.90
2023-01-13T09:50:52.106Z,7.50
2023-01-13T10:07:05.997Z,6.80
2023-01-13T10:11:03.023Z,7.20
2023-01-13T10:23:12.093Z,5.90
2023-01-13T10:27:12.645Z,7.10
2023-01-13T10:34:05.455Z,8.00
2023-01-13T10:37:55.225Z,7.10
2023-01-13T10:41:54.039Z,8.00
2023-01-13T10:50:01.063Z,6.30
2023-01-13T10:53:56.072Z,7.10
2023-01-13T10:57:49.285Z,6.70
2023-01-13T11:01:34.317Z,7.10
2023-01-13T11:05:49.236Z,7.10
2023-01-13T11:13:25.552Z,7.20
2023-01-13T11:17:06.985Z,7.10
2023-01-13T11:24:48.398Z,5.80
2023-01-13T11:28:45.065Z,5.40
2023-01-13T11:32:33.110Z,4.50
2023-01-13T11:36:36.184Z,5.80
2023-01-13T11:40:28.006Z,6.90
2023-01-13T11:44:19.362Z,6.50
2023-01-13T11:51:57.095Z,4.40
2023-01-13T12:00:12.743Z,6.30
2023-01-13T12:04:03.145Z,6.50
2023-01-13T12:08:09.091Z,4.20
2023-01-13T12:12:36.151Z,4.80
2023-01-13T12:16:42.110Z,5.50
2023-01-13T12:21:05.149Z,6.40
2023-01-13T12:24:52.130Z,6.10
2023-01-13T12:28:42.204Z,5.60
2023-01-13T12:36:57.196Z,5.30
2023-01-13T12:40:52.155Z,5.50
2023-01-13T12:49:17.176Z,5.60
2023-01-13T12:53:20.177Z,5.40
2023-01-13T13:00:56.216Z,4.50
2023-01-13T13:08:50.272Z,6.30
2023-01-13T13:13:08.108Z,6.20
2023-01-13T13:17:07.151Z,4.60
2023-01-13T13:21:29.171Z,6.50
2023-01-13T13:29:58.209Z,6.50
2023-01-13T13:33:59.160Z,6.80
2023-01-13T13:38:13.041Z,6.10
2023-01-13T13:42:05.054Z,7.20
2023-01-13T13:46:02.154Z,7.80
2023-01-13T13:49:52.262Z,7.40
2023-01-13T13:57:50.183Z,8.10
2023-01-13T14:01:41.521Z,7.90
2023-01-13T14:05:38.218Z,7.50
2023-01-13T14:09:17.211Z,7.30
2023-01-13T14:13:06.123Z,8.00
2023-01-13T14:17:09.172Z,7.60
2023-01-13T14:21:08.171Z,8.10
2023-01-13T14:24:48.244Z,7.90
2023-01-13T14:28:39.168Z,7.40
2023-01-13T14:32:37.216Z,7.80
2023-01-13T14:40:33.224Z,9.70
2023-01-13T14:44:14.199Z,9.20
2023-01-13T14:48:15.602Z,8.50
2023-01-13T14:52:02.718Z,7.70
2023-01-13T14:55:59.247Z,8.20
2023-01-13T15:00:11.101Z,8.00
2023-01-13T15:03:59.437Z,8.90
2023-01-13T15:07:44.196Z,9.30
2023-01-13T15:11:29.590Z,8.30
2023-01-13T15:15:19.277Z,8.70
2023-01-13T15:19:13.338Z,9.40
2023-01-13T15:23:12.263Z,11.10
2023-01-13T15:27:07.601Z,10.40
2023-01-13T15:30:56.588Z,9.40
2023-01-13T15:34:33.243Z,8.30
2023-01-13T15:38:09.237Z,8.00
2023-01-13T15:41:57.046Z,10.70
2023-01-13T15:45:45.784Z,12.90
2023-01-13T15:49:27.571Z,12.20
2023-01-13T15:53:37.253Z,11.50
2023-01-13T16:01:21.385Z,10.20
2023-01-13T16:05:14.174Z,11.30
2023-01-13T16:09:08.516Z,11.60
2023-01-13T16:13:05.417Z,13.60
2023-01-13T16:16:58.258Z,14.30
2023-01-13T16:24:15.562Z,16.10
2023-01-13T16:30:52.310Z,12.70
2023-01-13T16:37:13.337Z,10.60
2023-01-13T16:43:32.265Z,12.70
2023-01-13T16:47:03.340Z,13.00
2023-01-13T16:51:13.225Z,12.50
2023-01-13T16:54:59.342Z,11.40
2023-01-13T17:02:08.384Z,13.20
2023-01-13T17:05:54.596Z,10.80
2023-01-13T17:10:03.449Z,11.50
2023-01-13T17:13:50.354Z,10.70
2023-01-13T17:17:58.523Z,12.30
2023-01-13T17:21:45.544Z,11.90
2023-01-13T17:25:36.420Z,13.80
2023-01-13T17:29:16.435Z,13.30
2023-01-13T17:36:53.593Z,11.40
2023-01-13T17:40:55.570Z,10.70
2023-01-13T17:48:34.621Z,10.50
2023-01-13T17:52:21.401Z,9.40
2023-01-13T18:00:12.601Z,9.00
2023-01-13T18:07:30.600Z,10.60
2023-01-13T18:11:22.404Z,11.30
2023-01-13T18:14:47.429Z,12.40
2023-01-13T18:18:25.503Z,10.00
2023-01-13T18:22:22.238Z,10.50
2023-01-13T18:26:08.189Z,11.40
2023-01-13T18:29:55.474Z,11.70
2023-01-13T18:33:44.456Z,12.40
2023-01-13T18:37:21.459Z,11.50
2023-01-13T18:41:06.464Z,13.30
2023-01-13T18:44:58.253Z,11.70
2023-01-13T18:48:50.465Z,11.40
2023-01-13T18:52:43.576Z,10.90
2023-01-13T18:56:14.612Z,12.20
2023-01-13T19:00:07.932Z,12.10
2023-01-13T19:03:51.679Z,14.70
2023-01-13T19:07:35.438Z,14.40
2023-01-13T19:11:14.570Z,13.40
2023-01-13T19:18:47.688Z,14.00
2023-01-13T19:26:20.095Z,15.50
2023-01-13T19:30:04.658Z,17.90
2023-01-13T19:34:01.543Z,16.80
2023-01-13T19:37:44.692Z,17.30
2023-01-13T19:41:25.600Z,16.00
2023-01-13T19:45:19.823Z,14.80
2023-01-13T19:49:03.676Z,13.40
2023-01-13T19:52:42.630Z,14.20
2023-01-13T19:56:25.579Z,14.50
2023-01-13T20:00:05.852Z,15.20
2023-01-13T20:03:57.690Z,17.30
2023-01-13T20:07:41.850Z,15.90
2023-01-13T20:11:41.835Z,14.00
2023-01-13T20:15:39.535Z,11.70
2023-01-13T20:27:01.075Z,12.80
2023-01-13T20:33:31.635Z,18.20
2023-01-13T20:37:18.598Z,16.00
2023-01-13T20:52:36.671Z,16.20
2023-01-13T20:56:22.582Z,16.30
2023-01-13T21:00:08.727Z,14.90
2023-01-13T21:03:56.698Z,15.40
2023-01-13T21:07:48.588Z,14.70
2023-01-13T21:15:33.793Z,14.70
2023-01-13T21:20:11.799Z,13.20
2023-01-13T21:23:57.640Z,11.90
2023-01-13T21:28:21.552Z,14.80
2023-01-13T21:32:12.988Z,14.20
2023-01-13T21:39:21.714Z,12.60
2023-01-13T21:43:25.581Z,15.00
2023-01-13T21:51:39.864Z,13.10
2023-01-13T22:10:08.323Z,14.30
2023-01-13T22:36:22.651Z,15.40
2023-01-13T22:44:07.774Z,16.00
2023-01-13T22:58:39.445Z,13.80
2023-01-13T23:09:07.581Z,13.70
2023-01-13T23:21:59.656Z,13.80
2023-01-13T23:30:02.153Z,12.00
2023-01-13T23:33:51.341Z,14.00
